Observation data for Northwest Lubbock on 11/16/2019      Previous  Date       Current Mesonet Observations  Soil Data  Daily Summary Page  Observations in Plain Language
KLBW 160600Z 19007KT 08/M02 A3019 RMK A01 T00771020  RH  051%=      5-min Rain = 0
KLBW 160605Z 18008KT 08/M02 A3019 RMK A01 T00771020  RH  051%=      5-min Rain = 0
KLBW 160610Z 18007KT 08/M02 A3018 RMK A01 T00771020  RH  051%=      5-min Rain = 0
KLBW 160615Z 19007KT 08/M02 A3018 RMK A01 T00771020  RH  051%=      5-min Rain = 0
KLBW 160620Z 19010KT 08/M02 A3018 RMK A01 T00811020  RH  049%=      5-min Rain = 0
KLBW 160625Z 19008G13KT 08/M02 A3018 RMK A01 T00831020  RH  049%=      5-min Rain = 0
KLBW 160630Z 19009KT 08/M02 A3018 RMK A01 T00831019  RH  049%=      5-min Rain = 0
KLBW 160635Z 19010KT 09/M02 A3018 RMK A01 T00851019  RH  048%=      5-min Rain = 0
KLBW 160640Z 19010G15KT 09/M02 A3017 RMK A01 T00851019  RH  048%=      5-min Rain = 0
KLBW 160645Z 19010KT 09/M02 A3017 RMK A01 T00851019  RH  048%=      5-min Rain = 0
KLBW 160650Z 19010KT 08/M02 A3017 RMK A01 T00841019  RH  048%=      5-min Rain = 0
KLBW 160655Z 19009KT 08/M02 A3017 RMK A01 T00841019  RH  049%=      5-min Rain = 0
KLBW 160700Z 20009KT 08/M02 A3017 RMK A01 T00831019  RH  049%=      5-min Rain = 0
KLBW 160705Z 20009G14KT 08/M02 A3017 RMK A01 T00831019  RH  049%=      5-min Rain = 0
KLBW 160710Z 20009G14KT 08/M02 A3017 RMK A01 T00821019  RH  049%=      5-min Rain = 0
KLBW 160715Z 20010KT 08/M02 A3017 RMK A01 T00821019  RH  049%=      5-min Rain = 0
KLBW 160720Z 19009G14KT 08/M02 A3017 RMK A01 T00821019  RH  049%=      5-min Rain = 0
KLBW 160725Z 19010KT 08/M02 A3016 RMK A01 T00821019  RH  049%=      5-min Rain = 0
KLBW 160730Z 19009G14KT 08/M02 A3016 RMK A01 T00811019  RH  050%=      5-min Rain = 0
KLBW 160735Z 19009G15KT 08/M02 A3016 RMK A01 T00791018  RH  051%=      5-min Rain = 0
KLBW 160740Z 20011KT 08/M02 A3016 RMK A01 T00801016  RH  051%=      5-min Rain = 0
KLBW 160745Z 20011KT 08/M02 A3016 RMK A01 T00811016  RH  051%=      5-min Rain = 0
KLBW 160750Z 20011G16KT 08/M02 A3016 RMK A01 T00791015  RH  052%=      5-min Rain = 0
KLBW 160755Z 19010KT 08/M02 A3016 RMK A01 T00791015  RH  052%=      5-min Rain = 0
KLBW 160800Z 20010G15KT 08/M02 A3016 RMK A01 T00771015  RH  053%=      5-min Rain = 0
KLBW 160805Z 20010KT 08/M01 A3016 RMK A01 T00771014  RH  053%=      5-min Rain = 0
KLBW 160810Z 20010G16KT 08/M01 A3016 RMK A01 T00771014  RH  053%=      5-min Rain = 0
KLBW 160815Z 20009KT 08/M01 A3016 RMK A01 T00761014  RH  053%=      5-min Rain = 0
KLBW 160820Z 20009G14KT 08/M01 A3016 RMK A01 T00751013  RH  054%=      5-min Rain = 0
KLBW 160825Z 20010KT 08/M01 A3015 RMK A01 T00761013  RH  054%=      5-min Rain = 0
KLBW 160830Z 20009G15KT 08/M01 A3015 RMK A01 T00751013  RH  054%=      5-min Rain = 0
KLBW 160835Z 20010KT 08/M01 A3015 RMK A01 T00751013  RH  054%=      5-min Rain = 0
KLBW 160840Z 20010KT 07/M01 A3015 RMK A01 T00741012  RH  055%=      5-min Rain = 0
KLBW 160845Z 20010G15KT 07/M01 A3015 RMK A01 T00741012  RH  055%=      5-min Rain = 0
KLBW 160850Z 20009G14KT 07/M01 A3015 RMK A01 T00731012  RH  055%=      5-min Rain = 0
KLBW 160855Z 20009KT 07/M01 A3015 RMK A01 T00721012  RH  056%=      5-min Rain = 0
KLBW 160900Z 20010KT 07/M01 A3015 RMK A01 T00731012  RH  055%=      5-min Rain = 0
KLBW 160905Z 20010KT 07/M01 A3015 RMK A01 T00721012  RH  056%=      5-min Rain = 0
KLBW 160910Z 20010KT 07/M01 A3015 RMK A01 T00721012  RH  056%=      5-min Rain = 0
KLBW 160915Z 20008KT 07/M01 A3014 RMK A01 T00711012  RH  056%=      5-min Rain = 0
KLBW 160920Z 19008KT 07/M01 A3014 RMK A01 T00691012  RH  057%=      5-min Rain = 0
KLBW 160925Z 19009KT 07/M01 A3014 RMK A01 T00691011  RH  057%=      5-min Rain = 0
KLBW 160930Z 19008KT 07/M01 A3014 RMK A01 T00681012  RH  057%=      5-min Rain = 0
KLBW 160935Z 19009KT 07/M01 A3014 RMK A01 T00681011  RH  058%=      5-min Rain = 0
KLBW 160940Z 19008KT 07/M01 A3014 RMK A01 T00671011  RH  058%=      5-min Rain = 0
KLBW 160945Z 19008KT 07/M01 A3014 RMK A01 T00671011  RH  058%=      5-min Rain = 0
KLBW 160950Z 19008KT 07/M01 A3014 RMK A01 T00661011  RH  059%=      5-min Rain = 0
KLBW 160955Z 19007KT 07/M01 A3014 RMK A01 T00661010  RH  059%=      5-min Rain = 0
KLBW 161000Z 19008KT 07/M01 A3013 RMK A01 T00651010  RH  059%=      5-min Rain = 0
KLBW 161005Z 19007KT 06/M01 A3013 RMK A01 T00631010  RH  060%=      5-min Rain = 0
KLBW 161010Z 19007KT 06/M01 A3013 RMK A01 T00621010  RH  061%=      5-min Rain = 0
KLBW 161015Z 20007KT 06/M01 A3013 RMK A01 T00611010  RH  061%=      5-min Rain = 0
KLBW 161020Z 20007KT 06/M01 A3013 RMK A01 T00601010  RH  061%=      5-min Rain = 0
KLBW 161025Z 20007KT 06/M01 A3013 RMK A01 T00591010  RH  062%=      5-min Rain = 0
KLBW 161030Z 20008KT 06/M01 A3013 RMK A01 T00581010  RH  062%=      5-min Rain = 0
KLBW 161035Z 20008KT 06/M01 A3013 RMK A01 T00591010  RH  062%=      5-min Rain = 0
KLBW 161040Z 20008KT 06/M01 A3013 RMK A01 T00581009  RH  063%=      5-min Rain = 0
KLBW 161045Z 20008KT 06/M01 A3013 RMK A01 T00561010  RH  063%=      5-min Rain = 0
KLBW 161050Z 20008KT 06/M01 A3013 RMK A01 T00571009  RH  063%=      5-min Rain = 0
KLBW 161055Z 20008KT 06/M01 A3013 RMK A01 T00571009  RH  063%=      5-min Rain = 0
KLBW 161100Z 20007G12KT 06/M01 A3013 RMK A01 T00561009  RH  064%=      5-min Rain = 0
KLBW 161105Z 20005KT 05/M01 A3013 RMK A01 T00541010  RH  064%=      5-min Rain = 0
KLBW 161110Z 19004KT 05/M01 A3012 RMK A01 T00521010  RH  065%=      5-min Rain = 0
KLBW 161115Z 19004KT 05/M01 A3012 RMK A01 T00511011  RH  065%=      5-min Rain = 0
KLBW 161120Z 19005KT 05/M01 A3012 RMK A01 T00481011  RH  066%=      5-min Rain = 0
KLBW 161125Z 19005KT 05/M01 A3012 RMK A01 T00481010  RH  067%=      5-min Rain = 0
KLBW 161130Z 19005KT 05/M01 A3012 RMK A01 T00471010  RH  067%=      5-min Rain = 0
KLBW 161135Z 19005KT 05/M01 A3012 RMK A01 T00461010  RH  068%=      5-min Rain = 0
KLBW 161140Z 18005KT 05/M01 A3012 RMK A01 T00461009  RH  068%=      5-min Rain = 0
KLBW 161145Z 18005KT 05/M01 A3013 RMK A01 T00451010  RH  068%=      5-min Rain = 0
KLBW 161150Z 19006KT 05/M01 A3012 RMK A01 T00451008  RH  069%=      5-min Rain = 0
KLBW 161155Z 19007KT 05/M01 A3013 RMK A01 T00471007  RH  069%=      5-min Rain = 0
KLBW 161200Z 19006KT 05/M01 A3013 RMK A01 T00471007  RH  068%=      5-min Rain = 0
KLBW 161205Z 19006KT 05/M01 A3012 RMK A01 T00471007  RH  069%=      5-min Rain = 0
KLBW 161210Z 19005KT 05/M01 A3012 RMK A01 T00451008  RH  069%=      5-min Rain = 0
KLBW 161215Z 19005KT 04/M01 A3013 RMK A01 T00441008  RH  070%=      5-min Rain = 0
KLBW 161220Z 19006KT 04/M01 A3012 RMK A01 T00441007  RH  070%=      5-min Rain = 0
KLBW 161225Z 18005KT 04/M01 A3012 RMK A01 T00441008  RH  070%=      5-min Rain = 0
KLBW 161230Z 19006KT 04/M01 A3012 RMK A01 T00441006  RH  070%=      5-min Rain = 0
KLBW 161235Z 19007KT 05/M01 A3012 RMK A01 T00471005  RH  070%=      5-min Rain = 0
KLBW 161240Z 19007KT 05/M01 A3012 RMK A01 T00491005  RH  069%=      5-min Rain = 0
KLBW 161245Z 19007KT 05/M01 A3012 RMK A01 T00491005  RH  069%=      5-min Rain = 0
KLBW 161250Z 19006KT 05/M01 A3012 RMK A01 T00471006  RH  069%=      5-min Rain = 0
KLBW 161255Z 19006KT 05/M01 A3012 RMK A01 T00471005  RH  069%=      5-min Rain = 0
KLBW 161300Z 19007KT 05/M01 A3012 RMK A01 T00471005  RH  070%=      5-min Rain = 0
KLBW 161305Z 18006KT 05/M01 A3012 RMK A01 T00481005  RH  069%=      5-min Rain = 0
KLBW 161310Z 19007KT 05/M00 A3012 RMK A01 T00481004  RH  070%=      5-min Rain = 0
KLBW 161315Z 19007KT 05/M00 A3012 RMK A01 T00491004  RH  069%=      5-min Rain = 0
KLBW 161320Z 19006KT 05/M01 A3012 RMK A01 T00481005  RH  069%=      5-min Rain = 0
KLBW 161325Z 20005KT 05/M01 A3012 RMK A01 T00471005  RH  070%=      5-min Rain = 0
KLBW 161330Z 19005KT 05/M01 A3012 RMK A01 T00461005  RH  070%=      5-min Rain = 0
KLBW 161335Z 19005KT 05/M00 A3012 RMK A01 T00471004  RH  070%=      5-min Rain = 0
KLBW 161340Z 18004KT 05/M00 A3013 RMK A01 T00471004  RH  070%=      5-min Rain = 0
KLBW 161345Z 19005KT 05/M00 A3012 RMK A01 T00471004  RH  070%=      5-min Rain = 0
KLBW 161350Z 19006KT 05/M00 A3013 RMK A01 T00491003  RH  070%=      5-min Rain = 0
KLBW 161355Z 19006KT 05/M00 A3013 RMK A01 T00521002  RH  069%=      5-min Rain = 0
KLBW 161400Z 19005KT 05/M00 A3013 RMK A01 T00541002  RH  068%=      5-min Rain = 0
KLBW 161405Z 20005KT 06/M00 A3013 RMK A01 T00571001  RH  067%=      5-min Rain = 0
KLBW 161410Z 20005KT 06/M00 A3013 RMK A01 T00591002  RH  066%=      5-min Rain = 0
KLBW 161415Z 20007KT 06/M00 A3013 RMK A01 T00611002  RH  065%=      5-min Rain = 0
KLBW 161420Z 20006KT 06/M00 A3013 RMK A01 T00631002  RH  064%=      5-min Rain = 0
KLBW 161425Z 20007KT 06/M00 A3013 RMK A01 T00641002  RH  063%=      5-min Rain = 0
KLBW 161430Z 20008KT 07/M00 A3013 RMK A01 T00661002  RH  063%=      5-min Rain = 0
KLBW 161435Z 20009G14KT 07/M00 A3013 RMK A01 T00671002  RH  062%=      5-min Rain = 0
KLBW 161440Z 20010KT 07/M00 A3013 RMK A01 T00681002  RH  062%=      5-min Rain = 0
KLBW 161445Z 20010KT 07/M00 A3012 RMK A01 T00691002  RH  061%=      5-min Rain = 0
KLBW 161450Z 20009KT 07/M00 A3012 RMK A01 T00731001  RH  060%=      5-min Rain = 0
KLBW 161455Z 20010KT 08/M00 A3012 RMK A01 T00751002  RH  059%=      5-min Rain = 0
KLBW 161500Z 20010KT 08/00 A3012 RMK A01 T007700-0  RH  059%=      5-min Rain = 0
KLBW 161505Z 20009KT 08/00 A3012 RMK A01 T007900-0  RH  058%=      5-min Rain = 0
KLBW 161510Z 20008KT 09/00 A3012 RMK A01 T00850001  RH  056%=      5-min Rain = 0
KLBW 161515Z 20010G15KT 09/00 A3012 RMK A01 T00870001  RH  056%=      5-min Rain = 0
KLBW 161520Z 20009G14KT 09/00 A3012 RMK A01 T00850001  RH  056%=      5-min Rain = 0
KLBW 161525Z 21011G17KT 09/00 A3012 RMK A01 T00850001  RH  056%=      5-min Rain = 0
KLBW 161530Z 20011KT 09/00 A3012 RMK A01 T00870001  RH  056%=      5-min Rain = 0
KLBW 161535Z 21011KT 09/00 A3012 RMK A01 T00890001  RH  055%=      5-min Rain = 0
KLBW 161540Z 21010KT 09/00 A3012 RMK A01 T00890002  RH  055%=      5-min Rain = 0
KLBW 161545Z 21012KT 09/00 A3012 RMK A01 T00920003  RH  054%=      5-min Rain = 0
KLBW 161550Z 21011KT 10/00 A3012 RMK A01 T00950004  RH  054%=      5-min Rain = 0
KLBW 161555Z 21010KT 10/00 A3012 RMK A01 T00970004  RH  053%=      5-min Rain = 0
KLBW 161600Z 21008KT 10/01 A3012 RMK A01 T01020006  RH  052%=      5-min Rain = 0
KLBW 161605Z 20010KT 10/01 A3012 RMK A01 T01030005  RH  051%=      5-min Rain = 0
KLBW 161610Z 21010KT 10/00 A3012 RMK A01 T01010004  RH  052%=      5-min Rain = 0
KLBW 161615Z 21008KT 10/01 A3012 RMK A01 T01000005  RH  052%=      5-min Rain = 0
KLBW 161620Z 21009KT 10/01 A3012 RMK A01 T01040006  RH  051%=      5-min Rain = 0
KLBW 161625Z 20009KT 10/01 A3012 RMK A01 T01040006  RH  051%=      5-min Rain = 0
KLBW 161630Z 20008KT 11/01 A3012 RMK A01 T01070007  RH  051%=      5-min Rain = 0
KLBW 161635Z 20009KT 11/01 A3012 RMK A01 T01090007  RH  050%=      5-min Rain = 0
KLBW 161640Z 21007KT 11/01 A3012 RMK A01 T01140009  RH  049%=      5-min Rain = 0
KLBW 161645Z 21009KT 12/01 A3011 RMK A01 T01160008  RH  048%=      5-min Rain = 0
KLBW 161650Z 21008KT 12/01 A3011 RMK A01 T01190009  RH  047%=      5-min Rain = 0
KLBW 161655Z 21008KT 12/01 A3011 RMK A01 T01190008  RH  047%=      5-min Rain = 0
KLBW 161700Z 20008KT 12/01 A3011 RMK A01 T01170008  RH  048%=      5-min Rain = 0
KLBW 161705Z 20008KT 12/01 A301 RMK A01 T01210009  RH  047%=      5-min Rain = 0
KLBW 161710Z 20009KT 12/01 A301 RMK A01 T01220008  RH  046%=      5-min Rain = 0
KLBW 161715Z 21008KT 12/01 A301 RMK A01 T01190007  RH  047%=      5-min Rain = 0
KLBW 161720Z 21009KT 12/01 A3009 RMK A01 T01200008  RH  047%=      5-min Rain = 0
KLBW 161725Z 20008KT 13/01 A3009 RMK A01 T01250009  RH  046%=      5-min Rain = 0
KLBW 161730Z 21007KT 13/01 A3009 RMK A01 T01320012  RH  044%=      5-min Rain = 0
KLBW 161735Z 21007KT 14/01 A3009 RMK A01 T01360012  RH  043%=      5-min Rain = 0
KLBW 161740Z 20008KT 14/01 A3009 RMK A01 T01370010  RH  042%=      5-min Rain = 0
KLBW 161745Z 19006KT 14/01 A3008 RMK A01 T01420011  RH  042%=      5-min Rain = 0
KLBW 161750Z 19007KT 14/01 A3008 RMK A01 T01420009  RH  041%=      5-min Rain = 0
KLBW 161755Z 18007KT 14/01 A3008 RMK A01 T01440009  RH  040%=      5-min Rain = 0
KLBW 161800Z 18006G11KT 15/01 A3007 RMK A01 T01460010  RH  040%=      5-min Rain = 0
KLBW 161805Z 19008KT 14/01 A3007 RMK A01 T01440008  RH  040%=      5-min Rain = 0
KLBW 161810Z 18008KT 15/01 A3006 RMK A01 T01470009  RH  039%=      5-min Rain = 0
KLBW 161815Z 19009KT 15/01 A3006 RMK A01 T01480008  RH  039%=      5-min Rain = 0
KLBW 161820Z 19010KT 15/01 A3006 RMK A01 T01470006  RH  039%=      5-min Rain = 0
KLBW 161825Z 19010KT 15/01 A3005 RMK A01 T01500007  RH  038%=      5-min Rain = 0
KLBW 161830Z 20008KT 15/01 A3005 RMK A01 T01530008  RH  038%=      5-min Rain = 0
KLBW 161835Z 19008KT 15/01 A3005 RMK A01 T01540009  RH  038%=      5-min Rain = 0
KLBW 161840Z 19008KT 16/01 A3004 RMK A01 T01560009  RH  037%=      5-min Rain = 0
KLBW 161845Z 19010KT 16/01 A3004 RMK A01 T01610007  RH  036%=      5-min Rain = 0
KLBW 161850Z 18010KT 16/00 A3004 RMK A01 T01630004  RH  035%=      5-min Rain = 0
KLBW 161855Z 20009KT 16/00 A3003 RMK A01 T01610004  RH  035%=      5-min Rain = 0
KLBW 161900Z 19010KT 16/00 A3003 RMK A01 T01590002  RH  035%=      5-min Rain = 0
KLBW 161905Z 20010KT 16/01 A3002 RMK A01 T01610005  RH  035%=      5-min Rain = 0
KLBW 161910Z 21009KT 16/01 A3002 RMK A01 T01630008  RH  035%=      5-min Rain = 0
KLBW 161915Z 18010KT 17/01 A3002 RMK A01 T01700009  RH  034%=      5-min Rain = 0
KLBW 161920Z 18009G14KT 17/01 A3002 RMK A01 T01690010  RH  035%=      5-min Rain = 0
KLBW 161925Z 19010KT 17/01 A3001 RMK A01 T01720011  RH  034%=      5-min Rain = 0
KLBW 161930Z 19009KT 17/01 A3001 RMK A01 T01740010  RH  034%=      5-min Rain = 0
KLBW 161935Z 19011G16KT 18/00 A3001 RMK A01 T01760004  RH  032%=      5-min Rain = 0
KLBW 161940Z 19012KT 17/M00 A30 RMK A01 T01741001  RH  031%=      5-min Rain = 0
KLBW 161945Z 19010G15KT 18/00 A30 RMK A01 T017700-0  RH  031%=      5-min Rain = 0
KLBW 161950Z 19010KT 18/00 A30 RMK A01 T01770002  RH  031%=      5-min Rain = 0
KLBW 161955Z 20010KT 18/00 A30 RMK A01 T01790002  RH  031%=      5-min Rain = 0
KLBW 162000Z 18011G16KT 18/M00 A30 RMK A01 T01761002  RH  030%=      5-min Rain = 0
KLBW 162005Z 19010G16KT 17/M00 A30 RMK A01 T01731002  RH  031%=      5-min Rain = 0
KLBW 162010Z 19011KT 18/M00 A30 RMK A01 T01751001  RH  031%=      5-min Rain = 0
KLBW 162015Z 19011KT 18/00 A30 RMK A01 T01750001  RH  031%=      5-min Rain = 0
KLBW 162020Z 19010KT 18/00 A2999 RMK A01 T01760004  RH  032%=      5-min Rain = 0
KLBW 162025Z 19010G15KT 18/00 A2999 RMK A01 T01770004  RH  031%=      5-min Rain = 0
KLBW 162030Z 20012G17KT 17/00 A2999 RMK A01 T01740002  RH  032%=      5-min Rain = 0
KLBW 162035Z 19011KT 18/00 A2999 RMK A01 T01760004  RH  032%=      5-min Rain = 0
KLBW 162040Z 18012KT 18/01 A2999 RMK A01 T01760005  RH  032%=      5-min Rain = 0
KLBW 162045Z 19010KT 17/01 A2999 RMK A01 T01740007  RH  033%=      5-min Rain = 0
KLBW 162050Z 20010KT 18/01 A2998 RMK A01 T01780009  RH  033%=      5-min Rain = 0
KLBW 162055Z 19010KT 18/01 A2998 RMK A01 T01760010  RH  033%=      5-min Rain = 0
KLBW 162100Z 20010KT 18/01 A2998 RMK A01 T01800010  RH  032%=      5-min Rain = 0
KLBW 162105Z 19011KT 19/01 A2998 RMK A01 T01870008  RH  030%=      5-min Rain = 0
KLBW 162110Z 20011G16KT 19/01 A2998 RMK A01 T01880008  RH  030%=      5-min Rain = 0
KLBW 162115Z 18012G17KT 19/01 A2998 RMK A01 T01890010  RH  030%=      5-min Rain = 0
KLBW 162120Z 17010KT 19/01 A2997 RMK A01 T01870012  RH  031%=      5-min Rain = 0
KLBW 162125Z 18010G15KT 19/01 A2997 RMK A01 T01860011  RH  031%=      5-min Rain = 0
KLBW 162130Z 18011KT 19/01 A2997 RMK A01 T01850008  RH  031%=      5-min Rain = 0
KLBW 162135Z 19011G16KT 19/01 A2997 RMK A01 T01880006  RH  030%=      5-min Rain = 0
KLBW 162140Z 19012KT 18/00 A2997 RMK A01 T01810002  RH  030%=      5-min Rain = 0
KLBW 162145Z 19012KT 18/00 A2997 RMK A01 T01750003  RH  031%=      5-min Rain = 0
KLBW 162150Z 19011G16KT 17/00 A2997 RMK A01 T01730004  RH  032%=      5-min Rain = 0
KLBW 162155Z 18012KT 17/01 A2997 RMK A01 T01730005  RH  033%=      5-min Rain = 0
KLBW 162200Z 18011KT 17/01 A2997 RMK A01 T01690005  RH  033%=      5-min Rain = 0
KLBW 162205Z 18009KT 17/01 A2997 RMK A01 T01730007  RH  033%=      5-min Rain = 0
KLBW 162210Z 18009KT 17/01 A2996 RMK A01 T01740007  RH  033%=      5-min Rain = 0
KLBW 162215Z 18009KT 17/01 A2996 RMK A01 T01730006  RH  033%=      5-min Rain = 0
KLBW 162220Z 18008KT 17/01 A2996 RMK A01 T01740007  RH  033%=      5-min Rain = 0
KLBW 162225Z 17008KT 17/01 A2996 RMK A01 T01740008  RH  033%=      5-min Rain = 0
KLBW 162230Z 17008KT 17/01 A2996 RMK A01 T01740008  RH  033%=      5-min Rain = 0
KLBW 162235Z 17006KT 17/01 A2996 RMK A01 T01730009  RH  033%=      5-min Rain = 0
KLBW 162240Z 17008KT 18/01 A2996 RMK A01 T01760011  RH  033%=      5-min Rain = 0
KLBW 162245Z 19009KT 18/01 A2996 RMK A01 T01770012  RH  033%=      5-min Rain = 0
KLBW 162250Z 18010KT 18/01 A2996 RMK A01 T01760011  RH  033%=      5-min Rain = 0
KLBW 162255Z 17008KT 17/01 A2996 RMK A01 T01700010  RH  035%=      5-min Rain = 0
KLBW 162300Z 18009KT 17/01 A2996 RMK A01 T01660010  RH  035%=      5-min Rain = 0
KLBW 162305Z 18008KT 16/01 A2996 RMK A01 T01640010  RH  036%=      5-min Rain = 0
KLBW 162310Z 18007KT 16/01 A2996 RMK A01 T01620009  RH  036%=      5-min Rain = 0
KLBW 162315Z 17007KT 16/01 A2996 RMK A01 T01610009  RH  036%=      5-min Rain = 0
KLBW 162320Z 16006KT 16/01 A2996 RMK A01 T01610009  RH  036%=      5-min Rain = 0
KLBW 162325Z 16007KT 16/01 A2996 RMK A01 T01590010  RH  037%=      5-min Rain = 0
KLBW 162330Z 16007KT 16/01 A2996 RMK A01 T01580011  RH  037%=      5-min Rain = 0
KLBW 162335Z 17007KT 16/01 A2996 RMK A01 T01590011  RH  037%=      5-min Rain = 0
KLBW 162340Z 18006KT 16/01 A2997 RMK A01 T01580010  RH  037%=      5-min Rain = 0
KLBW 162345Z 18007KT 16/01 A2997 RMK A01 T01560009  RH  037%=      5-min Rain = 0
KLBW 162350Z 18008KT 16/01 A2996 RMK A01 T01550007  RH  037%=      5-min Rain = 0
KLBW 162355Z 17007KT 15/01 A2996 RMK A01 T01530006  RH  037%=      5-min Rain = 0
KLBW 170000Z 17007G12KT 15/01 A2997 RMK A01 T01510006  RH  038%=      5-min Rain = 0
KLBW 170005Z 18007KT 15/01 A2997 RMK A01 T01500007  RH  038%=      5-min Rain = 0
KLBW 170010Z 18007KT 15/01 A2997 RMK A01 T01470008  RH  039%=      5-min Rain = 0
KLBW 170015Z 18006KT 15/01 A2997 RMK A01 T01450009  RH  040%=      5-min Rain = 0
KLBW 170020Z 18006KT 14/01 A2997 RMK A01 T01440010  RH  041%=      5-min Rain = 0
KLBW 170025Z 18006KT 14/01 A2997 RMK A01 T01420010  RH  041%=      5-min Rain = 0
KLBW 170030Z 17006KT 14/01 A2997 RMK A01 T01420012  RH  042%=      5-min Rain = 0
KLBW 170035Z 18006KT 14/01 A2997 RMK A01 T01420014  RH  042%=      5-min Rain = 0
KLBW 170040Z 18007KT 14/02 A2997 RMK A01 T01430015  RH  042%=      5-min Rain = 0
KLBW 170045Z 18007KT 14/02 A2997 RMK A01 T01410015  RH  043%=      5-min Rain = 0
KLBW 170050Z 18008KT 14/02 A2997 RMK A01 T01420016  RH  043%=      5-min Rain = 0
KLBW 170055Z 17008KT 14/02 A2997 RMK A01 T01410016  RH  043%=      5-min Rain = 0
KLBW 170100Z 18007KT 14/02 A2997 RMK A01 T01410017  RH  043%=      5-min Rain = 0
KLBW 170105Z 18007KT 14/02 A2997 RMK A01 T01390016  RH  044%=      5-min Rain = 0
KLBW 170110Z 18007KT 14/02 A2997 RMK A01 T01360016  RH  045%=      5-min Rain = 0
KLBW 170115Z 17006KT 14/02 A2997 RMK A01 T01350016  RH  045%=      5-min Rain = 0
KLBW 170120Z 17006KT 13/02 A2997 RMK A01 T01330015  RH  045%=      5-min Rain = 0
KLBW 170125Z 17006KT 13/02 A2997 RMK A01 T01310016  RH  046%=      5-min Rain = 0
KLBW 170130Z 17006KT 13/02 A2997 RMK A01 T01300016  RH  046%=      5-min Rain = 0
KLBW 170135Z 17007KT 13/02 A2997 RMK A01 T01290016  RH  047%=      5-min Rain = 0
KLBW 170140Z 16007KT 13/02 A2997 RMK A01 T01290016  RH  047%=      5-min Rain = 0
KLBW 170145Z 17007KT 13/02 A2997 RMK A01 T01300016  RH  047%=      5-min Rain = 0
KLBW 170150Z 17007KT 13/02 A2997 RMK A01 T01300016  RH  046%=      5-min Rain = 0
KLBW 170155Z 18007KT 13/02 A2997 RMK A01 T01290016  RH  047%=      5-min Rain = 0
KLBW 170200Z 18008KT 13/02 A2997 RMK A01 T01280016  RH  047%=      5-min Rain = 0
KLBW 170205Z 18007KT 13/02 A2997 RMK A01 T01270016  RH  048%=      5-min Rain = 0
KLBW 170210Z 18007KT 13/02 A2997 RMK A01 T01270017  RH  048%=      5-min Rain = 0
KLBW 170215Z 18007KT 13/02 A2997 RMK A01 T01260018  RH  048%=      5-min Rain = 0
KLBW 170220Z 18007KT 13/02 A2997 RMK A01 T01270019  RH  048%=      5-min Rain = 0
KLBW 170225Z 18007KT 13/02 A2997 RMK A01 T01260019  RH  049%=      5-min Rain = 0
KLBW 170230Z 19009G14KT 13/02 A2997 RMK A01 T01270021  RH  049%=      5-min Rain = 0
KLBW 170235Z 19009KT 13/02 A2997 RMK A01 T01280021  RH  049%=      5-min Rain = 0
KLBW 170240Z 19010KT 13/02 A2997 RMK A01 T01280022  RH  049%=      5-min Rain = 0
KLBW 170245Z 19010G15KT 13/02 A2997 RMK A01 T01270022  RH  050%=      5-min Rain = 0
KLBW 170250Z 19010KT 13/02 A2997 RMK A01 T01260023  RH  050%=      5-min Rain = 0
KLBW 170255Z 19010G16KT 12/02 A2997 RMK A01 T01240024  RH  051%=      5-min Rain = 0
KLBW 170300Z 19010KT 12/02 A2997 RMK A01 T01230024  RH  052%=      5-min Rain = 0
KLBW 170305Z 19009G14KT 12/02 A2997 RMK A01 T01210024  RH  052%=      5-min Rain = 0
KLBW 170310Z 19008KT 12/02 A2997 RMK A01 T01190024  RH  053%=      5-min Rain = 0
KLBW 170315Z 19008KT 12/02 A2997 RMK A01 T01180024  RH  053%=      5-min Rain = 0
KLBW 170320Z 19008KT 12/02 A2997 RMK A01 T01160024  RH  054%=      5-min Rain = 0
KLBW 170325Z 19008KT 12/02 A2997 RMK A01 T01160024  RH  054%=      5-min Rain = 0
KLBW 170330Z 19008KT 12/02 A2997 RMK A01 T01150024  RH  054%=      5-min Rain = 0
KLBW 170335Z 20007KT 11/02 A2997 RMK A01 T01140024  RH  055%=      5-min Rain = 0
KLBW 170340Z 20007KT 11/02 A2997 RMK A01 T01130024  RH  055%=      5-min Rain = 0
KLBW 170345Z 20007KT 11/02 A2998 RMK A01 T01130024  RH  055%=      5-min Rain = 0
KLBW 170350Z 20006KT 11/02 A2997 RMK A01 T01120024  RH  055%=      5-min Rain = 0
KLBW 170355Z 20007KT 11/03 A2997 RMK A01 T01110025  RH  056%=      5-min Rain = 0
KLBW 170400Z 20006KT 11/03 A2997 RMK A01 T01120026  RH  056%=      5-min Rain = 0
KLBW 170405Z 20007KT 11/03 A2997 RMK A01 T01100026  RH  057%=      5-min Rain = 0
KLBW 170410Z 20008KT 11/03 A2997 RMK A01 T01120028  RH  057%=      5-min Rain = 0
KLBW 170415Z 20008G13KT 11/03 A2997 RMK A01 T01110028  RH  058%=      5-min Rain = 0
KLBW 170420Z 21008KT 11/03 A2997 RMK A01 T01090029  RH  059%=      5-min Rain = 0
KLBW 170425Z 20010G15KT 11/03 A2997 RMK A01 T01100030  RH  059%=      5-min Rain = 0
KLBW 170430Z 20009KT 11/03 A2997 RMK A01 T01090031  RH  059%=      5-min Rain = 0
KLBW 170435Z 20010G15KT 11/03 A2997 RMK A01 T01080031  RH  060%=      5-min Rain = 0
KLBW 170440Z 21010KT 11/03 A2997 RMK A01 T01070031  RH  060%=      5-min Rain = 0
KLBW 170445Z 21010KT 11/03 A2997 RMK A01 T01060031  RH  061%=      5-min Rain = 0
KLBW 170450Z 21011KT 11/03 A2997 RMK A01 T01050030  RH  061%=      5-min Rain = 0
KLBW 170455Z 21011G16KT 11/03 A2997 RMK A01 T01050030  RH  061%=      5-min Rain = 0
KLBW 170500Z 21011KT 11/03 A2997 RMK A01 T01050031  RH  061%=      5-min Rain = 0
KLBW 170505Z 21010G15KT 11/03 A2997 RMK A01 T01060032  RH  061%=      5-min Rain = 0
KLBW 170510Z 20010KT 11/03 A2996 RMK A01 T01060033  RH  062%=      5-min Rain = 0
KLBW 170515Z 20009KT 11/03 A2996 RMK A01 T01060033  RH  062%=      5-min Rain = 0
KLBW 170520Z 20009KT 11/03 A2996 RMK A01 T01060034  RH  062%=      5-min Rain = 0
KLBW 170525Z 20007KT 11/03 A2996 RMK A01 T01060034  RH  062%=      5-min Rain = 0
KLBW 170530Z 21007KT 11/03 A2996 RMK A01 T01050034  RH  063%=      5-min Rain = 0
KLBW 170535Z 21008KT 11/04 A2996 RMK A01 T01050035  RH  063%=      5-min Rain = 0
KLBW 170540Z 21008KT 11/04 A2996 RMK A01 T01060035  RH  063%=      5-min Rain = 0
KLBW 170545Z 21010KT 11/04 A2997 RMK A01 T01050035  RH  063%=      5-min Rain = 0
KLBW 170550Z 22007KT 10/04 A2997 RMK A01 T01040035  RH  063%=      5-min Rain = 0
KLBW 170555Z 22006KT 10/04 A2997 RMK A01 T01030035  RH  064%=      5-min Rain = 0

Page generated in 0.0092 seconds.